Europa — C6QK8 — position and weather

sailwx.info

Track history (hours):
 
Tides and Currents Weather Stations Pressure Air Temp Water Temp Dewpoint Dewpoint Depression Visibility Wind Speed Wind Dir Waves Ship Positions

Europa

Operator: Hapag-Lloyd Container Line

Last reported at 2018-Apr-20 03:31 UTC. Time now 2018-Apr-20 12:43 UTC.
Position N 31°51' E 034°38'.

Length 199 m; draft 6.2 m.

Type: Passenger vessel. MMSI: 308007000.

Date/timePositionNaut miles runAvg speedWind from/ knotsBaromVisibWave heightAir tempDewpointWater temp
2018-Apr-20 03:31N 31°51' E 034°38'0 6.9
2018-Apr-20 03:30N 31°51' E 034°38'12 6.1
2018-Apr-20 01:33N 32°01' E 034°31'1 7.9
2018-Apr-20 01:24N 32°02' E 034°32'3 8.0
2018-Apr-20 01:00N 32°05' E 034°33'4 8.2
2018-Apr-20 00:30N 32°09' E 034°34'4 8.2
2018-Apr-20 00:00N 32°13' E 034°35'4 8.2
2018-Apr-19 23:30N 32°17' E 034°37'4 8.4
2018-Apr-19 23:00N 32°21' E 034°38'5 9.2
2018-Apr-19 22:30N 32°25' E 034°40'5 9.2
2018-Apr-19 22:00N 32°30' E 034°42'5 9.1
2018-Apr-19 21:30N 32°34' E 034°43'4 9.0
2018-Apr-19 21:00N 32°38' E 034°45'5 9.0
2018-Apr-19 20:30N 32°43' E 034°46'4 9.0
2018-Apr-19 20:00N 32°47' E 034°48'5 9.0
2018-Apr-19 19:30N 32°51' E 034°49'4 8.1
2018-Apr-19 19:00N 32°53' E 034°54'5 9.1
2018-Apr-19 18:30N 32°52' E 034°59'1 0.1
2018-Apr-19 03:20N 32°51' E 034°60'2 6.0
2018-Apr-19 03:00N 32°52' E 034°58'4 7.4
2018-Apr-19 02:27N 32°54' E 034°53'2 3.2
2018-Apr-19 01:56N 32°53' E 034°52'4 8.9
2018-Apr-19 01:30N 32°53' E 034°47'812.6
2018-Apr-19 00:52N 32°56' E 034°38'1 3.5
2018-Apr-19 00:30N 32°57' E 034°39'4 8.5
2018-Apr-19 00:00N 33°01' E 034°37'510.9
2018-Apr-18 23:31N 33°07' E 034°37'4 7.9
2018-Apr-18 23:00N 33°11' E 034°37'4 7.0
2018-Apr-18 22:30N 33°14' E 034°35'4 7.8
2018-Apr-18 22:00N 33°17' E 034°32'4 7.3
2018-Apr-18 21:30N 33°20' E 034°31'510.1
2018-Apr-18 21:00N 33°23' E 034°26'3 6.3
2018-Apr-18 20:31N 33°25' E 034°23'5 9.0
2018-Apr-18 20:00N 33°28' E 034°20'1 2.9
2018-Apr-18 19:31N 33°29' E 034°18'3 6.6
2018-Apr-18 19:00N 33°32' E 034°15'713.3
2018-Apr-18 18:30N 33°37' E 034°12'3 6.1
2018-Apr-18 17:58N 33°37' E 034°08'4 8.5
2018-Apr-18 17:30N 33°40' E 034°04'510.2
2018-Apr-18 17:01N 33°44' E 034°01'510.3
2018-Apr-18 16:31N 33°49' E 033°58'5 5.6
2018-Apr-18 15:40N 33°53' E 033°56'315.5
2018-Apr-18 15:30N 33°54' E 033°53'6 8.4
2018-Apr-18 14:45N 33°59' E 033°48'2 9.3
2018-Apr-18 14:30N 33°57' E 033°46'3 5.7
2018-Apr-18 13:57N 34°00' E 033°45'3 7.5
2018-Apr-18 13:30N 34°03' E 033°43'510.7
2018-Apr-18 13:00N 34°07' E 033°39'5 9.9
2018-Apr-18 12:29N 34°11' E 033°35'6 6.0
2018-Apr-18 11:34N 34°13' E 033°29'0 1.8
2018-Apr-18 11:22N 34°14' E 033°28'4 9.6
2018-Apr-18 10:54N 34°16' E 033°24'4 9.7
2018-Apr-18 10:30N 34°17' E 033°20'1120.8
2018-Apr-18 09:59N 34°28' E 033°21'3 6.5
2018-Apr-18 09:29N 34°31' E 033°19'510.6
2018-Apr-18 09:00N 34°31' E 033°12'4 8.1
2018-Apr-18 08:31N 34°34' E 033°09'1 2.4
2018-Apr-18 08:00N 34°33' E 033°08'714.7
2018-Apr-18 07:30N 34°39' E 033°02'1 1.7
2018-Apr-18 07:00N 34°39' E 033°03'2 3.4
2018-Apr-18 06:30N 34°40' E 033°03'1 2.7
2018-Apr-18 05:59N 34°41' E 033°05'1 2.5
2018-Apr-18 05:29N 34°40' E 033°04'3 5.5
2018-Apr-18 04:58N 34°37' E 033°02'1 1.3
2018-Apr-18 04:25N 34°38' E 033°03'2 3.1
2018-Apr-18 03:55N 34°39' E 033°01'2 3.4
2018-Apr-18 03:13N 34°40' E 033°04'1 2.1
2018-Apr-18 02:54N 34°40' E 033°05'3 3.8
2018-Apr-18 02:06N 34°39' E 033°01'0 0.0
2018-Apr-18 01:44N 34°39' E 033°01'0 0.0
2018-Apr-18 00:40N 34°39' E 033°01'0 0.0
2018-Apr-18 00:28N 34°39' E 033°01'0 0.0
2018-Apr-17 23:55N 34°39' E 033°01'0 0.0
2018-Apr-17 23:30N 34°39' E 033°01'3 4.4
2018-Apr-17 22:52N 34°36' E 033°01'3 7.0
2018-Apr-17 22:29N 34°39' E 033°01'0 0.0
2018-Apr-17 21:58N 34°39' E 033°01'0 0.0
2018-Apr-17 21:28N 34°39' E 033°01'0 0.0
2018-Apr-17 20:55N 34°39' E 033°01'1 2.0
2018-Apr-17 20:29N 34°38' E 033°01'1 1.7
2018-Apr-17 19:59N 34°39' E 033°01'0 0.0
2018-Apr-17 19:29N 34°39' E 033°01'0 0.0
2018-Apr-17 18:59N 34°39' E 033°01'0 0.0
2018-Apr-17 18:29N 34°39' E 033°01'0 0.0
2018-Apr-17 17:56N 34°39' E 033°01'0 0.0
2018-Apr-17 17:29N 34°39' E 033°01'0 0.0
2018-Apr-17 16:59N 34°39' E 033°01'0 0.0
2018-Apr-17 15:36N 34°39' E 033°01'211.9
2018-Apr-17 15:28N 34°40' E 033°03'914.5
2018-Apr-17 14:49N 34°31' E 033°00'824.4
2018-Apr-17 14:28N 34°39' E 033°01'3 5.3
2018-Apr-17 13:54N 34°38' E 033°05'3 1.5
2018-Apr-17 11:53N 34°39' E 033°01'0 0.0
2018-Apr-17 11:29N 34°39' E 033°01'2 1.7
2018-Apr-17 10:35N 34°38' E 033°03'0 3.9
2018-Apr-17 10:30N 34°38' E 033°03'2 0.8
2018-Apr-17 08:15N 34°39' E 033°01'0 0.0
2018-Apr-17 07:54N 34°39' E 033°01'0 0.0
2018-Apr-17 07:27N 34°39' E 033°01'0 0.0
2018-Apr-17 06:30N 34°39' E 033°01'0 0.0
2018-Apr-17 04:51N 34°39' E 033°01'0 0.0
2018-Apr-17 04:30N 34°39' E 033°01'0 0.0
2018-Apr-17 03:51N 34°39' E 033°01'0 0.0
2018-Apr-17 03:30N 34°39' E 033°01'1 2.1
2018-Apr-17 03:00N 34°39' E 033°03'510.1
2018-Apr-17 02:30N 34°34' E 033°04'2112.2
2018-Apr-17 00:46N 34°13' E 033°01'513.7
2018-Apr-17 00:23N 34°08' E 033°01'1716.1
2018-Apr-16 23:22N 33°52' E 033°02'614.8
2018-Apr-16 22:59N 33°46' E 033°01'813.7
2018-Apr-16 22:24N 33°38' E 033°00'512.5
2018-Apr-16 22:00N 33°33' E 032°60'510.5
2018-Apr-16 21:30N 33°28' E 032°58'917.7
2018-Apr-16 21:00N 33°19' E 032°56'612.1
2018-Apr-16 20:30N 33°14' E 032°52'1122.9
2018-Apr-16 20:00N 33°03' E 032°52'1020.3
2018-Apr-16 19:30N 32°53' E 032°53'917.4
2018-Apr-16 19:01N 32°44' E 032°52'917.3
2018-Apr-16 18:31N 32°35' E 032°51'917.3
2018-Apr-16 18:01N 32°27' E 032°50'917.7
2018-Apr-16 17:31N 32°18' E 032°49'1517.8
2018-Apr-16 16:41N 32°03' E 032°47'317.4
2018-Apr-16 16:30N 32°00' E 032°47'917.2
2018-Apr-16 15:59N 31°51' E 032°46'816.1
2018-Apr-16 15:30N 31°45' E 032°42'817.1
2018-Apr-16 15:01N 31°39' E 032°35'917.2
2018-Apr-16 14:31N 31°32' E 032°28'2114.3
2018-Apr-16 13:03N 31°12' E 032°20'2 6.9
2018-Apr-16 12:50N 31°11' E 032°20'3 8.8
2018-Apr-16 12:30N 31°08' E 032°19'5 9.3
2018-Apr-16 12:00N 31°03' E 032°19'5 9.2
2018-Apr-16 11:30N 30°59' E 032°19'  
Track history (hours):
 
Tides and Currents Weather Stations Pressure Air Temp Water Temp Dewpoint Dewpoint Depression Visibility Wind Speed Wind Dir Waves Ship Positions

Europa

Operator: Hapag-Lloyd Container Line

Last reported at 2018-Apr-20 03:31 UTC. Time now 2018-Apr-20 12:43 UTC.
Position N 31°51' E 034°38'.

Length 199 m; draft 6.2 m.

Type: Passenger vessel. MMSI: 308007000.

Date/timePositionNaut miles runAvg speedWind from/ knotsBaromVisibWave heightAir tempDewpointWater temp
2018-Apr-20 03:31N 31°51' E 034°38'0 6.9
2018-Apr-20 03:30N 31°51' E 034°38'12 6.1
2018-Apr-20 01:33N 32°01' E 034°31'1 7.9
2018-Apr-20 01:24N 32°02' E 034°32'3 8.0
2018-Apr-20 01:00N 32°05' E 034°33'4 8.2
2018-Apr-20 00:30N 32°09' E 034°34'4 8.2
2018-Apr-20 00:00N 32°13' E 034°35'4 8.2
2018-Apr-19 23:30N 32°17' E 034°37'4 8.4
2018-Apr-19 23:00N 32°21' E 034°38'5 9.2
2018-Apr-19 22:30N 32°25' E 034°40'5 9.2
2018-Apr-19 22:00N 32°30' E 034°42'5 9.1
2018-Apr-19 21:30N 32°34' E 034°43'4 9.0
2018-Apr-19 21:00N 32°38' E 034°45'5 9.0
2018-Apr-19 20:30N 32°43' E 034°46'4 9.0
2018-Apr-19 20:00N 32°47' E 034°48'5 9.0
2018-Apr-19 19:30N 32°51' E 034°49'4 8.1
2018-Apr-19 19:00N 32°53' E 034°54'5 9.1
2018-Apr-19 18:30N 32°52' E 034°59'1 0.1
2018-Apr-19 03:20N 32°51' E 034°60'2 6.0
2018-Apr-19 03:00N 32°52' E 034°58'4 7.4
2018-Apr-19 02:27N 32°54' E 034°53'2 3.2
2018-Apr-19 01:56N 32°53' E 034°52'4 8.9
2018-Apr-19 01:30N 32°53' E 034°47'812.6
2018-Apr-19 00:52N 32°56' E 034°38'1 3.5
2018-Apr-19 00:30N 32°57' E 034°39'4 8.5
2018-Apr-19 00:00N 33°01' E 034°37'510.9
2018-Apr-18 23:31N 33°07' E 034°37'4 7.9
2018-Apr-18 23:00N 33°11' E 034°37'4 7.0
2018-Apr-18 22:30N 33°14' E 034°35'4 7.8
2018-Apr-18 22:00N 33°17' E 034°32'4 7.3
2018-Apr-18 21:30N 33°20' E 034°31'510.1
2018-Apr-18 21:00N 33°23' E 034°26'3 6.3
2018-Apr-18 20:31N 33°25' E 034°23'5 9.0
2018-Apr-18 20:00N 33°28' E 034°20'1 2.9
2018-Apr-18 19:31N 33°29' E 034°18'3 6.6
2018-Apr-18 19:00N 33°32' E 034°15'713.3
2018-Apr-18 18:30N 33°37' E 034°12'3 6.1
2018-Apr-18 17:58N 33°37' E 034°08'4 8.5
2018-Apr-18 17:30N 33°40' E 034°04'510.2
2018-Apr-18 17:01N 33°44' E 034°01'510.3
2018-Apr-18 16:31N 33°49' E 033°58'5 5.6
2018-Apr-18 15:40N 33°53' E 033°56'315.5
2018-Apr-18 15:30N 33°54' E 033°53'6 8.4
2018-Apr-18 14:45N 33°59' E 033°48'2 9.3
2018-Apr-18 14:30N 33°57' E 033°46'3 5.7
2018-Apr-18 13:57N 34°00' E 033°45'3 7.5
2018-Apr-18 13:30N 34°03' E 033°43'510.7
2018-Apr-18 13:00N 34°07' E 033°39'5 9.9
2018-Apr-18 12:29N 34°11' E 033°35'6 6.0
2018-Apr-18 11:34N 34°13' E 033°29'0 1.8
2018-Apr-18 11:22N 34°14' E 033°28'4 9.6
2018-Apr-18 10:54N 34°16' E 033°24'4 9.7
2018-Apr-18 10:30N 34°17' E 033°20'1120.8
2018-Apr-18 09:59N 34°28' E 033°21'3 6.5
2018-Apr-18 09:29N 34°31' E 033°19'510.6
2018-Apr-18 09:00N 34°31' E 033°12'4 8.1
2018-Apr-18 08:31N 34°34' E 033°09'1 2.4
2018-Apr-18 08:00N 34°33' E 033°08'714.7
2018-Apr-18 07:30N 34°39' E 033°02'1 1.7
2018-Apr-18 07:00N 34°39' E 033°03'2 3.4
2018-Apr-18 06:30N 34°40' E 033°03'1 2.7
2018-Apr-18 05:59N 34°41' E 033°05'1 2.5
2018-Apr-18 05:29N 34°40' E 033°04'3 5.5
2018-Apr-18 04:58N 34°37' E 033°02'1 1.3
2018-Apr-18 04:25N 34°38' E 033°03'2 3.1
2018-Apr-18 03:55N 34°39' E 033°01'2 3.4
2018-Apr-18 03:13N 34°40' E 033°04'1 2.1
2018-Apr-18 02:54N 34°40' E 033°05'3 3.8
2018-Apr-18 02:06N 34°39' E 033°01'0 0.0
2018-Apr-18 01:44N 34°39' E 033°01'0 0.0
2018-Apr-18 00:40N 34°39' E 033°01'0 0.0
2018-Apr-18 00:28N 34°39' E 033°01'0 0.0
2018-Apr-17 23:55N 34°39' E 033°01'0 0.0
2018-Apr-17 23:30N 34°39' E 033°01'3 4.4
2018-Apr-17 22:52N 34°36' E 033°01'3 7.0
2018-Apr-17 22:29N 34°39' E 033°01'0 0.0
2018-Apr-17 21:58N 34°39' E 033°01'0 0.0
2018-Apr-17 21:28N 34°39' E 033°01'0 0.0
2018-Apr-17 20:55N 34°39' E 033°01'1 2.0
2018-Apr-17 20:29N 34°38' E 033°01'1 1.7
2018-Apr-17 19:59N 34°39' E 033°01'0 0.0
2018-Apr-17 19:29N 34°39' E 033°01'0 0.0
2018-Apr-17 18:59N 34°39' E 033°01'0 0.0
2018-Apr-17 18:29N 34°39' E 033°01'0 0.0
2018-Apr-17 17:56N 34°39' E 033°01'0 0.0
2018-Apr-17 17:29N 34°39' E 033°01'0 0.0
2018-Apr-17 16:59N 34°39' E 033°01'0 0.0
2018-Apr-17 15:36N 34°39' E 033°01'211.9
2018-Apr-17 15:28N 34°40' E 033°03'914.5
2018-Apr-17 14:49N 34°31' E 033°00'824.4
2018-Apr-17 14:28N 34°39' E 033°01'3 5.3
2018-Apr-17 13:54N 34°38' E 033°05'3 1.5
2018-Apr-17 11:53N 34°39' E 033°01'0 0.0
2018-Apr-17 11:29N 34°39' E 033°01'2 1.7
2018-Apr-17 10:35N 34°38' E 033°03'0 3.9
2018-Apr-17 10:30N 34°38' E 033°03'2 0.8
2018-Apr-17 08:15N 34°39' E 033°01'0 0.0
2018-Apr-17 07:54N 34°39' E 033°01'0 0.0
2018-Apr-17 07:27N 34°39' E 033°01'0 0.0
2018-Apr-17 06:30N 34°39' E 033°01'0 0.0
2018-Apr-17 04:51N 34°39' E 033°01'0 0.0
2018-Apr-17 04:30N 34°39' E 033°01'0 0.0
2018-Apr-17 03:51N 34°39' E 033°01'0 0.0
2018-Apr-17 03:30N 34°39' E 033°01'1 2.1
2018-Apr-17 03:00N 34°39' E 033°03'510.1
2018-Apr-17 02:30N 34°34' E 033°04'2112.2
2018-Apr-17 00:46N 34°13' E 033°01'513.7
2018-Apr-17 00:23N 34°08' E 033°01'1716.1
2018-Apr-16 23:22N 33°52' E 033°02'614.8
2018-Apr-16 22:59N 33°46' E 033°01'813.7
2018-Apr-16 22:24N 33°38' E 033°00'512.5
2018-Apr-16 22:00N 33°33' E 032°60'510.5
2018-Apr-16 21:30N 33°28' E 032°58'917.7
2018-Apr-16 21:00N 33°19' E 032°56'612.1
2018-Apr-16 20:30N 33°14' E 032°52'1122.9
2018-Apr-16 20:00N 33°03' E 032°52'1020.3
2018-Apr-16 19:30N 32°53' E 032°53'917.4
2018-Apr-16 19:01N 32°44' E 032°52'917.3
2018-Apr-16 18:31N 32°35' E 032°51'917.3
2018-Apr-16 18:01N 32°27' E 032°50'917.7
2018-Apr-16 17:31N 32°18' E 032°49'1517.8
2018-Apr-16 16:41N 32°03' E 032°47'317.4
2018-Apr-16 16:30N 32°00' E 032°47'917.2
2018-Apr-16 15:59N 31°51' E 032°46'816.1
2018-Apr-16 15:30N 31°45' E 032°42'817.1
2018-Apr-16 15:01N 31°39' E 032°35'917.2
2018-Apr-16 14:31N 31°32' E 032°28'2114.3
2018-Apr-16 13:03N 31°12' E 032°20'2 6.9
2018-Apr-16 12:50N 31°11' E 032°20'3 8.8
2018-Apr-16 12:30N 31°08' E 032°19'5 9.3
2018-Apr-16 12:00N 31°03' E 032°19'5 9.2
2018-Apr-16 11:30N 30°59' E 032°19'  

Dump ship's entire track history